Time;durP1;ratioP1;P1;durP2;ratioP2;P2;SDS_P1;SDS_P2;PMS_P1;PMS_P2;Temp;Humidity;BMP_temperature;BMP_pressure;BME280_temperature;BME280_humidity;BME280_pressure;Samples;Min_cycle;Max_cycle;Signal;HPM_P1;HPM_P2
2023/01/24 00:00:51;;;;;;;42.15;22.17;;;2.40;99.90;;;;;;4930882;29;20615;-79
2023/01/24 00:03:20;;;;;;;39.55;20.73;;;2.50;99.90;;;;;;4934016;29;20053;-80
2023/01/24 00:05:46;;;;;;;41.30;21.20;;;2.50;99.90;;;;;;4920126;29;20047;-78
2023/01/24 00:08:13;;;;;;;49.50;23.58;;;2.40;99.90;;;;;;4938945;29;20043;-78
2023/01/24 00:10:39;;;;;;;37.33;20.67;;;2.40;99.90;;;;;;4938772;29;20048;-78
2023/01/24 00:13:05;;;;;;;41.58;21.20;;;2.30;99.90;;;;;;4932048;29;20102;-78
2023/01/24 00:15:31;;;;;;;40.00;20.50;;;2.40;99.90;;;;;;4918946;29;20051;-79
2023/01/24 00:17:57;;;;;;;36.58;20.92;;;2.40;99.90;;;;;;4938715;29;20406;-80
2023/01/24 00:20:23;;;;;;;39.53;21.33;;;2.40;99.90;;;;;;4923370;29;20146;-80
2023/01/24 00:22:49;;;;;;;38.90;21.42;;;2.40;99.90;;;;;;4939261;28;20404;-79
2023/01/24 00:25:17;;;;;;;44.88;23.65;;;2.40;99.90;;;;;;4955263;28;20087;-79
2023/01/24 00:27:43;;;;;;;40.05;21.27;;;2.40;99.90;;;;;;4938687;29;20046;-79
2023/01/24 00:30:10;;;;;;;40.35;22.08;;;2.40;99.90;;;;;;4923855;29;20130;-78
2023/01/24 00:32:35;;;;;;;42.67;21.75;;;2.40;99.90;;;;;;4940101;29;20035;-80
2023/01/24 00:35:02;;;;;;;47.63;23.60;;;2.40;99.90;;;;;;4940648;29;20077;-80
2023/01/24 00:37:27;;;;;;;49.92;23.45;;;2.30;99.90;;;;;;4951428;28;20476;-80
2023/01/24 00:39:53;;;;;;;45.30;23.83;;;2.20;99.90;;;;;;4954156;28;20106;-80
2023/01/24 00:42:19;;;;;;;39.50;21.52;;;2.30;99.90;;;;;;4938329;29;20043;-80
2023/01/24 00:44:45;;;;;;;44.22;22.75;;;2.10;99.90;;;;;;4938520;28;20055;-80
2023/01/24 00:47:10;;;;;;;42.20;21.95;;;2.30;99.90;;;;;;4928206;29;20055;-79
2023/01/24 00:49:36;;;;;;;39.75;20.88;;;2.30;99.90;;;;;;4937754;29;20475;-80
2023/01/24 00:52:02;;;;;;;44.20;21.88;;;2.30;99.90;;;;;;4938481;29;20043;-79
2023/01/24 00:54:28;;;;;;;42.47;22.20;;;2.30;99.90;;;;;;4925074;29;20035;-79
2023/01/24 00:56:54;;;;;;;44.10;22.77;;;2.30;99.90;;;;;;4942810;29;20043;-79
2023/01/24 00:59:20;;;;;;;42.25;22.50;;;2.30;99.90;;;;;;4927205;29;20062;-79
2023/01/24 01:01:45;;;;;;;43.38;22.83;;;2.40;99.90;;;;;;4937296;29;20043;-79
2023/01/24 01:04:11;;;;;;;46.38;22.55;;;2.40;99.90;;;;;;4940638;29;20112;-79
2023/01/24 01:06:37;;;;;;;46.45;23.02;;;2.30;99.90;;;;;;4924940;29;20043;-79
2023/01/24 01:09:03;;;;;;;42.92;22.92;;;2.30;99.90;;;;;;4942184;29;20143;-79
2023/01/24 01:11:28;;;;;;;47.60;23.75;;;2.40;99.90;;;;;;4929994;29;20054;-79
2023/01/24 01:13:57;;;;;;;43.15;22.48;;;2.30;99.90;;;;;;4958439;29;20043;-79
2023/01/24 01:16:23;;;;;;;46.35;23.65;;;2.30;99.90;;;;;;4926050;29;20047;-79
2023/01/24 01:18:50;;;;;;;52.55;25.65;;;2.40;99.90;;;;;;4942883;29;20054;-80
2023/01/24 01:21:17;;;;;;;41.60;22.45;;;2.30;99.90;;;;;;4943195;29;20044;-79
2023/01/24 01:23:43;;;;;;;43.80;24.20;;;2.40;99.90;;;;;;4941940;29;20098;-79
2023/01/24 01:26:12;;;;;;;45.40;23.75;;;2.30;99.90;;;;;;4940936;28;20079;-79
2023/01/24 01:28:38;;;;;;;43.13;23.35;;;2.30;99.90;;;;;;4942494;29;20039;-80
2023/01/24 01:31:07;;;;;;;42.38;21.20;;;2.30;99.90;;;;;;4941876;29;20047;-79
2023/01/24 01:33:33;;;;;;;39.95;21.20;;;2.40;99.90;;;;;;4941836;28;20040;-80
2023/01/24 01:35:59;;;;;;;39.78;22.08;;;2.40;99.90;;;;;;4941188;29;20043;-80
2023/01/24 01:38:27;;;;;;;39.20;21.52;;;2.40;99.90;;;;;;4926777;29;20039;-78
2023/01/24 01:40:53;;;;;;;;;;;2.40;99.90;;;;;;4927624;29;20050;-78
2023/01/24 01:43:21;;;;;;;46.03;23.58;;;2.30;99.90;;;;;;4958920;28;19961;-78
2023/01/24 01:45:51;;;;;;;49.00;23.48;;;2.30;99.90;;;;;;4940470;29;20147;-78
2023/01/24 01:48:24;;;;;;;43.63;23.73;;;2.20;99.90;;;;;;4922895;29;20115;-77
2023/01/24 01:51:03;;;;;;;45.28;22.83;;;2.20;99.90;;;;;;4941559;29;20039;-78
2023/01/24 01:53:33;;;;;;;39.80;21.88;;;2.30;99.90;;;;;;4940380;29;20053;-78
2023/01/24 01:56:04;;;;;;;41.63;22.38;;;2.30;99.90;;;;;;4942275;28;20047;-78
2023/01/24 01:58:33;;;;;;;43.13;22.85;;;2.40;99.90;;;;;;4942670;29;20471;-78
2023/01/24 02:00:58;;;;;;;43.00;22.50;;;2.30;99.90;;;;;;4941352;29;20094;-78
2023/01/24 02:03:39;;;;;;;41.58;21.25;;;2.40;99.90;;;;;;4941426;29;20047;-78
2023/01/24 02:06:19;;;;;;;40.50;20.25;;;2.30;99.90;;;;;;4941362;28;20066;-78
2023/01/24 02:08:45;;;;;;;41.22;22.88;;;2.30;99.90;;;;;;4927831;29;20039;-78
2023/01/24 02:16:01;;;;;;;37.45;20.25;;;2.40;99.90;;;;;;4956552;29;20043;-78
2023/01/24 02:16:43;;;;;;;42.55;21.33;;;2.20;99.90;;;;;;4939268;29;20083;-79
2023/01/24 02:19:22;;;;;;;39.85;21.35;;;2.30;99.90;;;;;;4925489;29;20085;-79
2023/01/24 02:21:49;;;;;;;42.75;22.48;;;2.20;99.90;;;;;;4957806;28;20046;-79
2023/01/24 02:24:21;;;;;;;33.80;20.40;;;2.30;99.90;;;;;;4957480;28;20057;-79
2023/01/24 02:26:47;;;;;;;41.80;22.98;;;2.20;99.90;;;;;;4941813;29;20057;-78
2023/01/24 02:29:14;;;;;;;38.97;21.27;;;2.20;99.90;;;;;;4925770;29;20043;-79
2023/01/24 02:31:57;;;;;;;39.08;20.33;;;2.20;99.90;;;;;;4941351;29;20150;-79
2023/01/24 02:34:23;;;;;;;39.13;21.00;;;2.20;99.90;;;;;;4941743;29;20049;-79
2023/01/24 02:36:52;;;;;;;41.15;21.30;;;2.10;99.90;;;;;;4941719;29;20047;-79
2023/01/24 02:39:21;;;;;;;39.13;21.55;;;2.10;99.90;;;;;;4925572;29;20071;-79
2023/01/24 02:41:53;;;;;;;39.28;21.80;;;2.10;99.90;;;;;;4926054;28;20376;-79
2023/01/24 02:44:25;;;;;;;41.38;22.05;;;2.20;99.90;;;;;;4915413;29;20461;-79
2023/01/24 02:46:54;;;;;;;43.70;22.48;;;2.30;99.90;;;;;;4924855;29;20152;-79
2023/01/24 02:49:20;;;;;;;40.55;21.80;;;2.20;99.90;;;;;;4941109;29;20105;-79
2023/01/24 02:54:30;;;;;;;38.83;20.65;;;2.10;99.90;;;;;;4957902;29;20043;-79
2023/01/24 02:59:40;;;;;;;43.20;21.13;;;2.20;99.90;;;;;;4943241;29;20051;-79
2023/01/24 03:02:06;;;;;;;37.85;20.58;;;2.30;99.90;;;;;;4940656;29;20062;-79
2023/01/24 03:04:32;;;;;;;39.33;20.77;;;2.30;99.90;;;;;;4935464;29;20062;-79
2023/01/24 03:07:06;;;;;;;42.22;22.25;;;2.20;99.90;;;;;;4925234;29;20153;-79
2023/01/24 03:09:35;;;;;;;39.20;21.00;;;2.20;99.90;;;;;;4940606;29;20456;-78
2023/01/24 03:36:44;;;;;;;37.38;19.70;;;2.20;99.90;;;;;;4941943;29;20346;-79
2023/01/24 03:41:56;;;;;;;34.03;18.95;;;2.10;99.90;;;;;;4930345;29;20705;-78
2023/01/24 03:44:23;;;;;;;35.35;19.70;;;2.10;99.90;;;;;;4944457;29;20047;-79
2023/01/24 03:46:49;;;;;;;38.63;20.17;;;2.10;99.90;;;;;;4943798;28;20441;-79
2023/01/24 03:49:16;;;;;;;40.53;20.33;;;2.30;99.90;;;;;;4943017;28;20067;-79
2023/01/24 03:54:29;;;;;;;39.67;20.27;;;2.10;99.90;;;;;;4954597;28;20114;-79
2023/01/24 03:56:55;;;;;;;36.28;19.98;;;1.80;99.90;;;;;;4953516;29;20057;-79
2023/01/24 03:59:21;;;;;;;37.15;20.17;;;2.00;99.90;;;;;;4934548;29;20256;-79
2023/01/24 04:01:47;;;;;;;37.05;19.63;;;2.10;99.90;;;;;;4938643;29;20047;-79
2023/01/24 04:04:12;;;;;;;36.00;19.35;;;2.20;99.90;;;;;;4940654;29;20075;-79
2023/01/24 04:06:38;;;;;;;38.88;20.45;;;2.10;99.90;;;;;;4923519;29;20055;-79
2023/01/24 04:09:06;;;;;;;36.78;19.55;;;2.10;99.90;;;;;;4923186;29;20380;-79
2023/01/24 04:11:32;;;;;;;36.08;19.38;;;2.10;99.90;;;;;;4939942;29;20078;-79
2023/01/24 04:13:58;;;;;;;39.25;21.75;;;2.10;99.90;;;;;;4923987;29;20077;-79
2023/01/24 04:16:24;;;;;;;36.35;18.98;;;2.10;99.90;;;;;;4939855;29;20126;-79
2023/01/24 04:18:49;;;;;;;34.10;18.75;;;1.90;99.90;;;;;;4923444;29;20135;-78
2023/01/24 04:21:15;;;;;;;33.50;17.88;;;2.10;99.90;;;;;;4932625;29;20054;-79
2023/01/24 04:23:41;;;;;;;31.88;18.52;;;2.20;99.90;;;;;;4910674;29;20062;-79
2023/01/24 04:26:06;;;;;;;32.42;17.63;;;2.20;99.90;;;;;;4905341;29;20086;-79
2023/01/24 04:28:32;;;;;;;32.20;17.80;;;2.00;99.90;;;;;;4934074;29;20073;-79
2023/01/24 04:31:01;;;;;;;35.08;19.30;;;2.20;99.90;;;;;;4935197;29;20051;-78
2023/01/24 04:33:27;;;;;;;38.55;19.40;;;2.30;99.90;;;;;;4933273;29;20154;-79
2023/01/24 04:35:57;;;;;;;31.05;18.27;;;2.20;99.90;;;;;;4968752;28;20126;-79
2023/01/24 04:38:23;;;;;;;31.90;17.67;;;2.10;99.90;;;;;;4932702;29;20074;-79
2023/01/24 04:41:00;;;;;;;34.85;19.35;;;2.20;99.90;;;;;;4939600;29;20121;-79
2023/01/24 04:43:25;;;;;;;31.88;17.67;;;2.10;99.90;;;;;;4938760;29;20753;-79
2023/01/24 04:45:55;;;;;;;29.10;17.40;;;2.10;99.90;;;;;;4923613;29;20090;-79
2023/01/24 04:48:23;;;;;;;35.08;18.45;;;2.10;99.90;;;;;;4920589;29;20044;-79
2023/01/24 04:50:49;;;;;;;28.55;16.77;;;2.10;99.90;;;;;;4939566;29;20054;-79
2023/01/24 04:53:15;;;;;;;29.63;16.10;;;2.20;99.90;;;;;;4923206;29;20050;-78
2023/01/24 04:55:41;;;;;;;35.05;19.05;;;2.30;99.90;;;;;;4952401;28;20417;-79
2023/01/24 04:58:07;;;;;;;30.08;17.13;;;2.20;99.90;;;;;;4933927;29;20047;-79
2023/01/24 05:00:33;;;;;;;29.13;17.80;;;2.10;99.90;;;;;;4910605;29;20125;-79
2023/01/24 05:02:58;;;;;;;30.08;15.60;;;2.20;99.90;;;;;;4938718;29;20058;-79
2023/01/24 05:05:24;;;;;;;27.30;15.30;;;2.20;99.90;;;;;;4910900;29;20051;-79
2023/01/24 05:07:50;;;;;;;32.13;16.45;;;2.20;99.90;;;;;;4902670;29;20044;-78
2023/01/24 05:10:20;;;;;;;25.13;15.25;;;2.00;99.90;;;;;;4917168;29;20131;-79
2023/01/24 05:12:52;;;;;;;26.73;15.93;;;2.10;99.90;;;;;;4917302;29;20047;-78
2023/01/24 05:15:25;;;;;;;26.08;15.43;;;2.20;99.90;;;;;;4939314;29;20142;-78
2023/01/24 05:17:54;;;;;;;26.08;14.70;;;2.20;99.90;;;;;;4940529;28;20051;-77
2023/01/24 05:20:20;;;;;;;25.65;14.57;;;2.30;99.90;;;;;;4940013;29;20453;-77
2023/01/24 05:22:48;;;;;;;26.17;14.90;;;2.20;99.90;;;;;;4927597;29;20047;-77
2023/01/24 05:25:15;;;;;;;27.23;14.95;;;2.20;99.90;;;;;;4920815;29;20050;-78
2023/01/24 05:27:43;;;;;;;25.00;14.50;;;2.20;99.90;;;;;;4937717;29;20368;-77
2023/01/24 05:30:10;;;;;;;22.92;13.40;;;2.20;99.90;;;;;;4922140;29;20473;-77
2023/01/24 05:32:36;;;;;;;24.50;13.70;;;2.20;99.90;;;;;;4938351;28;20039;-77
2023/01/24 05:35:02;;;;;;;22.92;12.85;;;2.30;99.90;;;;;;4938954;28;20106;-77
2023/01/24 05:37:28;;;;;;;24.92;13.93;;;2.30;99.90;;;;;;4924088;29;20071;-76
2023/01/24 05:39:54;;;;;;;23.08;12.88;;;2.20;99.90;;;;;;4939313;29;20047;-77
2023/01/24 05:42:20;;;;;;;22.90;13.00;;;2.20;99.90;;;;;;4942200;29;20046;-78
2023/01/24 05:44:49;;;;;;;25.67;12.32;;;2.10;99.90;;;;;;4942259;29;20136;-77
2023/01/24 05:47:15;;;;;;;21.50;12.23;;;2.20;99.90;;;;;;4942947;29;20046;-77
2023/01/24 05:49:40;;;;;;;20.80;12.77;;;2.20;99.90;;;;;;4941221;28;20046;-78
2023/01/24 05:52:06;;;;;;;20.88;12.05;;;2.20;99.90;;;;;;4943337;29;20047;-78
2023/01/24 05:54:41;;;;;;;20.35;12.43;;;2.10;99.90;;;;;;4942991;29;20051;-77
2023/01/24 05:57:07;;;;;;;19.50;11.98;;;2.10;99.90;;;;;;4938458;29;20043;-77
2023/01/24 05:59:33;;;;;;;20.20;11.88;;;2.20;99.90;;;;;;4926996;29;20186;-78
2023/01/24 06:01:59;;;;;;;22.10;12.38;;;2.30;99.90;;;;;;4953197;29;20567;-78
2023/01/24 06:04:25;;;;;;;17.00;10.88;;;2.10;99.90;;;;;;4955808;28;20146;-78
2023/01/24 06:06:51;;;;;;;20.15;12.10;;;2.20;99.90;;;;;;4973090;28;20083;-78
2023/01/24 06:09:17;;;;;;;17.05;10.43;;;2.20;99.90;;;;;;4929995;29;20039;-78
2023/01/24 06:11:46;;;;;;;16.58;10.25;;;2.20;99.90;;;;;;4925454;29;20054;-78
2023/01/24 06:14:12;;;;;;;17.35;10.50;;;2.30;99.90;;;;;;4942820;29;20110;-77
2023/01/24 06:16:39;;;;;;;15.60;9.18;;;2.20;99.90;;;;;;4942674;29;20420;-78
2023/01/24 06:19:05;;;;;;;15.00;9.10;;;2.20;99.90;;;;;;4940038;29;20047;-79
2023/01/24 06:21:52;;;;;;;16.20;9.77;;;2.20;99.90;;;;;;4956637;29;20066;-78
2023/01/24 06:24:20;;;;;;;16.02;8.90;;;2.30;99.90;;;;;;4943659;29;20054;-78
2023/01/24 06:26:49;;;;;;;14.32;7.97;;;2.30;99.90;;;;;;4942885;29;20464;-78
2023/01/24 06:29:15;;;;;;;13.43;8.68;;;2.20;99.90;;;;;;4941808;29;20043;-79
2023/01/24 06:32:16;;;;;;;13.93;8.07;;;2.30;99.90;;;;;;4925943;29;20150;-78
2023/01/24 06:35:00;;;;;;;14.43;8.35;;;2.20;99.90;;;;;;4959550;28;20051;-78
2023/01/24 06:38:20;;;;;;;12.02;7.88;;;2.10;99.90;;;;;;4938965;29;20133;-78
2023/01/24 06:40:47;;;;;;;12.07;7.68;;;2.10;99.90;;;;;;4883279;29;20053;-79
2023/01/24 06:43:13;;;;;;;12.85;8.32;;;2.10;99.90;;;;;;4881238;29;20052;-79
2023/01/24 06:45:44;;;;;;;11.70;7.63;;;2.20;99.90;;;;;;4916059;29;20047;-79
2023/01/24 06:48:10;;;;;;;12.98;7.63;;;2.10;99.90;;;;;;4923696;29;20472;-79
2023/01/24 06:50:36;;;;;;;9.50;6.95;;;2.10;99.90;;;;;;4942415;28;20058;-79
2023/01/24 06:53:01;;;;;;;12.23;7.65;;;2.20;99.90;;;;;;4920968;29;20071;-79
2023/01/24 06:55:27;;;;;;;10.55;7.18;;;2.20;99.90;;;;;;4939933;29;20094;-78
2023/01/24 06:57:57;;;;;;;12.57;7.75;;;2.30;99.90;;;;;;4935501;29;20035;-78
2023/01/24 07:00:23;;;;;;;11.63;7.32;;;2.20;99.90;;;;;;4925250;29;20070;-78
2023/01/24 07:02:58;;;;;;;9.65;6.55;;;2.10;99.90;;;;;;4924143;29;20527;-78
2023/01/24 07:05:25;;;;;;;11.48;7.47;;;2.10;99.90;;;;;;4920378;29;20047;-78
2023/01/24 07:07:51;;;;;;;12.40;7.20;;;2.10;99.90;;;;;;4941171;29;21117;-78
2023/01/24 07:10:17;;;;;;;11.25;7.60;;;2.20;99.90;;;;;;4924288;29;20051;-78
2023/01/24 07:12:43;;;;;;;13.45;9.02;;;2.00;99.90;;;;;;4923627;29;20809;-80
2023/01/24 07:15:09;;;;;;;12.65;8.48;;;2.10;99.90;;;;;;4915216;29;20048;-79
2023/01/24 07:17:35;;;;;;;8.63;6.03;;;2.00;99.90;;;;;;4914707;29;20134;-79
2023/01/24 07:20:01;;;;;;;8.93;6.07;;;2.10;99.90;;;;;;4927478;29;20056;-79
2023/01/24 07:22:27;;;;;;;9.35;6.03;;;2.20;99.90;;;;;;4922333;29;20054;-79
2023/01/24 07:24:53;;;;;;;9.45;6.05;;;2.20;99.90;;;;;;4938586;29;20376;-79
2023/01/24 07:27:20;;;;;;;10.90;6.57;;;2.20;99.90;;;;;;4954674;28;20051;-79
2023/01/24 07:29:45;;;;;;;11.32;6.30;;;2.30;99.90;;;;;;4940385;29;20735;-79
2023/01/24 07:32:11;;;;;;;9.45;6.38;;;2.30;99.90;;;;;;4924030;29;20126;-79
2023/01/24 07:34:37;;;;;;;11.43;6.70;;;2.30;99.90;;;;;;4922961;29;20183;-79
2023/01/24 07:37:05;;;;;;;11.60;6.38;;;2.30;99.90;;;;;;4921130;29;20048;-79
2023/01/24 07:39:31;;;;;;;9.98;6.32;;;2.20;99.90;;;;;;4924265;29;20519;-79
2023/01/24 07:41:57;;;;;;;9.07;5.80;;;2.20;99.90;;;;;;4910316;29;20059;-79
2023/01/24 07:44:23;;;;;;;11.88;6.38;;;2.20;99.90;;;;;;4923679;29;20058;-79
2023/01/24 07:46:48;;;;;;;9.80;5.82;;;2.20;99.90;;;;;;4933202;29;20055;-78
2023/01/24 07:49:14;;;;;;;9.32;6.40;;;2.20;99.90;;;;;;4936711;29;20472;-79
2023/01/24 07:51:40;;;;;;;11.23;6.18;;;2.20;99.90;;;;;;4932895;29;20468;-79
2023/01/24 07:54:06;;;;;;;9.40;6.18;;;2.20;99.90;;;;;;4940066;29;20453;-79
2023/01/24 07:56:32;;;;;;;11.25;7.07;;;2.20;99.90;;;;;;4940716;29;20058;-79
2023/01/24 07:58:58;;;;;;;10.43;6.85;;;2.30;99.90;;;;;;4939926;29;20043;-79
2023/01/24 08:01:24;;;;;;;9.98;6.55;;;2.20;99.90;;;;;;4924511;29;20059;-79
2023/01/24 08:03:52;;;;;;;9.27;6.72;;;2.30;99.90;;;;;;4939768;29;20138;-79
2023/01/24 08:06:18;;;;;;;10.93;6.90;;;2.20;99.90;;;;;;4927645;29;20070;-78
2023/01/24 08:08:44;;;;;;;10.70;6.57;;;2.20;99.90;;;;;;4939433;29;20081;-79
2023/01/24 08:11:11;;;;;;;12.20;6.65;;;2.20;99.90;;;;;;4939897;29;20054;-79
2023/01/24 08:13:37;;;;;;;10.85;7.65;;;2.20;99.90;;;;;;4942545;28;20043;-78
2023/01/24 08:16:03;;;;;;;9.90;6.90;;;2.20;99.90;;;;;;4939096;29;20043;-78
2023/01/24 08:18:29;;;;;;;10.32;6.90;;;2.20;99.90;;;;;;4939704;29;20039;-78
2023/01/24 08:20:58;;;;;;;13.18;7.05;;;2.30;99.90;;;;;;4939467;29;20043;-78
2023/01/24 08:23:23;;;;;;;11.93;7.18;;;2.30;99.90;;;;;;4923276;29;20055;-78
2023/01/24 08:25:49;;;;;;;13.60;7.35;;;2.30;99.90;;;;;;4938474;29;20047;-78
2023/01/24 08:28:15;;;;;;;9.80;6.30;;;2.40;99.90;;;;;;4941191;29;20067;-77
2023/01/24 08:30:41;;;;;;;9.30;6.28;;;2.30;99.90;;;;;;4923367;29;20062;-77
2023/01/24 08:33:07;;;;;;;10.00;6.32;;;2.40;99.90;;;;;;4923429;29;20469;-79
2023/01/24 08:35:32;;;;;;;9.32;6.43;;;2.30;99.90;;;;;;4923688;29;20058;-79
2023/01/24 08:37:59;;;;;;;9.63;6.38;;;2.40;99.90;;;;;;4939537;29;20039;-78
2023/01/24 08:40:24;;;;;;;8.93;5.93;;;2.30;99.90;;;;;;4923225;29;20117;-78
2023/01/24 08:42:50;;;;;;;10.25;6.88;;;2.40;99.90;;;;;;4923361;29;20039;-78
2023/01/24 08:45:16;;;;;;;11.35;7.03;;;2.40;99.90;;;;;;4945097;29;20101;-78
2023/01/24 08:47:42;;;;;;;9.73;6.57;;;2.50;99.90;;;;;;4954797;28;20087;-78
2023/01/24 08:50:08;;;;;;;11.40;6.63;;;2.40;99.90;;;;;;4954794;29;20057;-78
2023/01/24 08:52:34;;;;;;;10.55;6.95;;;2.40;99.90;;;;;;4939625;29;20035;-78
2023/01/24 08:54:59;;;;;;;10.73;6.85;;;2.50;99.90;;;;;;4938759;29;20046;-79
2023/01/24 08:57:25;;;;;;;8.48;6.15;;;2.50;99.90;;;;;;4938382;29;20047;-76
2023/01/24 08:59:51;;;;;;;9.70;6.28;;;2.50;99.90;;;;;;4926382;28;20047;-78
2023/01/24 09:02:17;;;;;;;9.00;6.45;;;2.50;99.90;;;;;;4939040;29;20163;-78
2023/01/24 09:04:43;;;;;;;8.68;6.28;;;2.50;99.90;;;;;;4938074;29;20043;-78
2023/01/24 09:07:10;;;;;;;9.05;6.38;;;2.50;99.90;;;;;;4916421;29;20123;-78
2023/01/24 09:09:36;;;;;;;8.95;6.68;;;2.40;99.90;;;;;;4938477;29;20559;-77
2023/01/24 09:12:02;;;;;;;10.40;6.95;;;2.50;99.90;;;;;;4922845;29;20138;-78
2023/01/24 09:14:27;;;;;;;9.75;7.07;;;2.50;99.90;;;;;;4940369;29;20094;-78
2023/01/24 09:16:55;;;;;;;10.88;8.23;;;2.50;99.90;;;;;;4942316;28;20043;-78
2023/01/24 09:19:20;;;;;;;9.27;6.75;;;2.40;99.90;;;;;;4923825;29;20043;-77
2023/01/24 09:21:51;;;;;;;9.30;6.63;;;2.50;99.90;;;;;;4957476;29;20375;-78
2023/01/24 09:24:18;;;;;;;11.98;6.88;;;2.50;99.90;;;;;;4958642;29;20138;-78
2023/01/24 09:26:44;;;;;;;10.60;7.75;;;2.50;99.90;;;;;;4939178;29;20082;-79
2023/01/24 09:29:16;;;;;;;9.27;6.90;;;2.50;99.90;;;;;;4937142;29;20079;-79
2023/01/24 09:31:41;;;;;;;10.32;6.53;;;2.50;99.90;;;;;;4967582;28;20059;-79
2023/01/24 09:34:07;;;;;;;9.60;6.95;;;2.60;99.90;;;;;;4920712;29;20054;-78
2023/01/24 09:36:33;;;;;;;9.95;6.55;;;2.60;99.90;;;;;;4942027;28;20805;-79
2023/01/24 09:38:59;;;;;;;8.93;6.30;;;2.50;99.90;;;;;;4941351;28;20051;-77
2023/01/24 09:41:29;;;;;;;10.82;7.70;;;2.50;99.90;;;;;;4942519;29;20066;-79
2023/01/24 09:43:59;;;;;;;9.82;7.30;;;2.50;99.90;;;;;;4942067;29;20051;-80
2023/01/24 09:46:32;;;;;;;9.10;6.70;;;2.50;99.90;;;;;;4926267;29;20043;-80
2023/01/24 09:49:31;;;;;;;9.45;6.47;;;2.60;99.90;;;;;;4929541;29;20050;-78
2023/01/24 09:51:57;;;;;;;9.50;6.72;;;2.60;99.90;;;;;;4936007;29;20050;-79
2023/01/24 09:54:32;;;;;;;9.70;6.55;;;2.60;99.90;;;;;;4931516;29;20044;-80
2023/01/24 09:56:58;;;;;;;11.90;6.18;;;2.60;99.90;;;;;;4952342;28;20483;-79
2023/01/24 09:59:37;;;;;;;9.40;6.38;;;2.60;99.90;;;;;;4935269;29;20048;-79
2023/01/24 10:02:16;;;;;;;10.23;6.38;;;2.60;99.90;;;;;;4937701;29;20050;-79
2023/01/24 10:04:42;;;;;;;9.70;6.35;;;2.60;99.90;;;;;;4942352;29;20230;-79
2023/01/24 10:07:23;;;;;;;8.90;6.20;;;2.60;99.90;;;;;;4940673;29;20475;-79
2023/01/24 10:10:10;;;;;;;10.25;6.30;;;2.70;99.90;;;;;;4957154;28;20138;-78
2023/01/24 10:12:52;;;;;;;9.75;6.47;;;2.60;99.90;;;;;;4940618;29;20039;-78
2023/01/24 10:15:47;;;;;;;9.77;5.88;;;2.70;99.90;;;;;;4939133;29;20043;-78
2023/01/24 10:18:22;;;;;;;10.98;6.95;;;2.70;99.90;;;;;;4957111;28;20145;-78
2023/01/24 10:21:00;;;;;;;9.43;6.18;;;2.60;99.90;;;;;;4939090;29;20469;-78
2023/01/24 10:23:29;;;;;;;9.20;6.28;;;2.70;99.90;;;;;;4936500;28;20053;-78
2023/01/24 10:25:56;;;;;;;12.75;7.38;;;2.60;99.90;;;;;;4923565;29;20540;-78
2023/01/24 10:28:37;;;;;;;9.90;6.75;;;2.70;99.90;;;;;;4940227;29;20043;-78
2023/01/24 10:31:11;;;;;;;11.98;6.07;;;2.70;99.90;;;;;;4942784;28;20087;-78
2023/01/24 10:33:44;;;;;;;10.23;6.10;;;2.80;99.90;;;;;;4925938;29;20043;-78
2023/01/24 10:36:22;;;;;;;10.30;6.00;;;2.70;99.90;;;;;;4926376;29;20070;-78
2023/01/24 10:38:48;;;;;;;12.85;6.45;;;2.80;99.90;;;;;;4955949;28;20049;-78
2023/01/24 10:41:22;;;;;;;9.63;5.75;;;2.90;99.90;;;;;;4957326;28;20043;-78
2023/01/24 10:44:13;;;;;;;10.43;6.20;;;2.90;99.90;;;;;;4941455;29;20043;-77
2023/01/24 10:47:06;;;;;;;9.10;6.45;;;2.90;99.90;;;;;;4946283;29;20063;-79
2023/01/24 10:49:36;;;;;;;12.43;6.35;;;2.80;99.90;;;;;;4940916;29;20050;-78
2023/01/24 10:52:08;;;;;;;9.10;5.90;;;2.90;99.90;;;;;;4941373;29;20042;-78
2023/01/24 10:54:50;;;;;;;10.77;5.93;;;3.00;99.90;;;;;;4957539;28;20043;-78
2023/01/24 10:57:35;;;;;;;7.85;5.78;;;3.00;99.90;;;;;;4962445;28;20047;-78
2023/01/24 11:00:17;;;;;;;10.48;6.35;;;2.90;99.90;;;;;;4955862;28;20055;-78
2023/01/24 11:02:49;;;;;;;8.85;5.80;;;2.80;99.90;;;;;;4957417;28;20046;-77
2023/01/24 11:05:15;;;;;;;11.52;6.13;;;2.90;99.90;;;;;;4935459;29;20058;-77
2023/01/24 11:07:45;;;;;;;13.07;6.15;;;2.90;99.90;;;;;;4940205;28;20055;-77
2023/01/24 11:10:21;;;;;;;8.85;6.07;;;3.00;99.90;;;;;;4949447;29;20428;-78
2023/01/24 11:12:48;;;;;;;11.75;6.32;;;3.00;99.90;;;;;;4961116;28;20038;-77
2023/01/24 11:15:18;;;;;;;9.90;6.30;;;3.00;99.90;;;;;;4924989;29;20046;-77
2023/01/24 11:17:47;;;;;;;9.63;5.45;;;3.00;99.90;;;;;;4955961;28;20321;-77
2023/01/24 11:20:35;;;;;;;11.95;6.35;;;2.90;99.90;;;;;;4928123;29;20079;-78
2023/01/24 11:23:24;;;;;;;10.45;6.03;;;3.00;99.90;;;;;;4908299;29;20054;-78
2023/01/24 11:25:58;;;;;;;10.32;6.25;;;2.90;99.90;;;;;;4918143;29;20055;-77
2023/01/24 11:28:24;;;;;;;10.00;6.38;;;2.90;99.90;;;;;;4920220;28;20047;-77
2023/01/24 11:30:50;;;;;;;14.07;6.70;;;3.00;99.90;;;;;;4943368;28;20122;-78
2023/01/24 11:33:47;;;;;;;10.00;6.07;;;3.00;99.90;;;;;;4933780;29;20631;-79
2023/01/24 11:36:25;;;;;;;7.68;5.18;;;2.90;99.90;;;;;;4949960;28;20796;-78
2023/01/24 11:38:51;;;;;;;9.23;5.97;;;2.90;99.90;;;;;;4927887;29;20051;-79
2023/01/24 11:41:26;;;;;;;9.88;5.40;;;2.80;99.90;;;;;;4917322;29;20612;-78
2023/01/24 11:44:01;;;;;;;11.90;6.70;;;2.80;99.90;;;;;;4911908;29;20070;-78
2023/01/24 11:46:41;;;;;;;9.48;6.32;;;2.80;99.90;;;;;;4950931;29;20082;-78
2023/01/24 11:49:10;;;;;;;8.25;5.65;;;2.80;99.90;;;;;;4943867;29;20043;-80
2023/01/24 11:51:53;;;;;;;10.23;6.00;;;2.90;99.90;;;;;;4955477;29;20039;-80
2023/01/24 11:55:03;;;;;;;9.38;5.85;;;3.00;99.90;;;;;;4934722;29;20043;-80
2023/01/24 11:57:55;;;;;;;12.90;7.25;;;2.90;99.90;;;;;;4939987;29;20134;-80
2023/01/24 12:00:32;;;;;;;9.95;6.30;;;2.90;99.90;;;;;;4940105;29;20079;-80
2023/01/24 12:03:16;;;;;;;9.35;6.40;;;2.70;99.90;;;;;;4941069;29;20543;-79
2023/01/24 12:05:55;;;;;;;9.73;6.25;;;2.90;99.90;;;;;;4956627;28;20063;-79
2023/01/24 12:08:52;;;;;;;9.38;6.22;;;2.80;99.90;;;;;;4940240;29;20063;-78
2023/01/24 12:11:37;;;;;;;10.25;6.00;;;2.90;99.90;;;;;;4941705;28;20044;-78
2023/01/24 12:14:21;;;;;;;11.27;6.30;;;2.90;99.90;;;;;;4971893;28;20043;-79
2023/01/24 12:17:22;;;;;;;11.07;6.55;;;2.80;99.90;;;;;;4955910;28;20039;-77
2023/01/24 12:20:19;;;;;;;12.13;6.80;;;2.80;99.90;;;;;;4942281;29;20338;-77
2023/01/24 12:22:44;;;;;;;10.60;6.05;;;2.80;99.90;;;;;;4923243;29;20101;-77
2023/01/24 12:25:30;;;;;;;12.45;6.03;;;2.90;99.90;;;;;;4923521;29;20042;-77
2023/01/24 12:27:56;;;;;;;8.82;5.97;;;2.70;99.90;;;;;;4939706;29;20468;-77
2023/01/24 12:30:31;;;;;;;10.60;6.35;;;2.90;99.90;;;;;;4938809;29;20094;-77
2023/01/24 12:33:08;;;;;;;10.40;5.57;;;2.90;99.90;;;;;;4923746;29;20043;-78
2023/01/24 12:35:45;;;;;;;10.63;5.53;;;2.90;99.90;;;;;;4933695;29;20752;-77
2023/01/24 12:38:18;;;;;;;9.80;6.93;;;2.80;99.90;;;;;;4897372;29;20138;-77
2023/01/24 12:41:25;;;;;;;11.77;7.28;;;2.90;99.90;;;;;;4948947;29;20102;-77
2023/01/24 12:44:11;;;;;;;10.18;6.22;;;2.80;99.90;;;;;;4924637;29;20487;-77
2023/01/24 12:46:52;;;;;;;8.68;5.65;;;2.80;99.90;;;;;;4948612;29;20053;-77
2023/01/24 12:49:36;;;;;;;10.60;5.68;;;2.80;99.90;;;;;;4940746;29;20658;-77
2023/01/24 12:52:23;;;;;;;10.93;6.60;;;2.70;99.90;;;;;;4953506;29;20067;-77
2023/01/24 12:54:52;;;;;;;11.13;7.20;;;2.70;99.90;;;;;;4919980;29;20046;-78
2023/01/24 12:57:32;;;;;;;11.15;6.63;;;2.60;99.90;;;;;;4921834;29;20453;-78
2023/01/24 12:59:58;;;;;;;13.02;7.10;;;2.70;99.90;;;;;;4939254;29;20055;-78
2023/01/24 13:02:42;;;;;;;11.80;6.50;;;2.80;99.90;;;;;;4925838;29;20061;-79
2023/01/24 13:05:28;;;;;;;10.93;6.47;;;2.60;99.90;;;;;;4958218;28;20047;-79
2023/01/24 13:08:05;;;;;;;23.60;13.95;;;2.60;99.90;;;;;;4939573;29;20613;-78
2023/01/24 13:10:49;;;;;;;21.77;15.30;;;2.70;99.90;;;;;;4958586;28;20074;-79
2023/01/24 13:13:22;;;;;;;18.38;8.55;;;2.70;99.90;;;;;;4948866;28;20082;-79
2023/01/24 13:16:17;;;;;;;12.32;8.10;;;2.80;99.90;;;;;;4920118;29;20050;-79
2023/01/24 13:19:06;;;;;;;11.60;6.72;;;2.50;99.90;;;;;;4925909;29;20039;-79
2023/01/24 13:21:43;;;;;;;12.77;8.23;;;2.70;99.90;;;;;;4943360;29;20305;-79
2023/01/24 13:24:31;;;;;;;24.93;7.20;;;2.70;99.90;;;;;;4958326;28;20047;-79
2023/01/24 13:27:07;;;;;;;;;;;2.60;99.90;;;;;;4953601;29;20058;-79
2023/01/24 13:29:56;;;;;;;12.18;6.63;;;2.60;99.90;;;;;;4971056;28;19918;-79
2023/01/24 13:32:22;;;;;;;10.35;6.40;;;2.70;99.90;;;;;;4958927;29;20536;-79
2023/01/24 13:34:55;;;;;;;8.95;5.95;;;2.60;99.90;;;;;;4942292;29;20130;-79
2023/01/24 13:37:30;;;;;;;12.55;6.85;;;2.70;99.90;;;;;;4936417;29;20043;-80
2023/01/24 13:40:30;;;;;;;10.00;6.75;;;2.80;99.90;;;;;;4942333;29;20134;-79
2023/01/24 13:42:57;;;;;;;10.23;6.03;;;2.70;99.90;;;;;;4953767;28;20376;-80